Time;durP1;ratioP1;P1;durP2;ratioP2;P2;SDS_P1;SDS_P2;PMS_P1;PMS_P2;Temp;Humidity;BMP_temperature;BMP_pressure;BME280_temperature;BME280_humidity;BME280_pressure;Samples;Min_cycle;Max_cycle;Signal;HPM_P1;HPM_P2
2023/01/22 00:01:56;;;;;;;40.30;17.17;;;;;;;1.55;82.16;102538.59;6091718;23;20010;-72
2023/01/22 00:04:22;;;;;;;36.65;17.88;;;;;;;1.56;81.90;102539.47;6091206;23;20006;-71
2023/01/22 00:06:47;;;;;;;40.72;19.08;;;;;;;1.55;81.92;102527.50;6093185;23;20030;-72
2023/01/22 00:09:14;;;;;;;35.50;16.05;;;;;;;1.56;82.32;102531.81;6091128;23;20559;-71
2023/01/22 00:11:40;;;;;;;39.60;17.58;;;;;;;1.55;82.02;102530.94;6092579;23;20018;-71
2023/01/22 00:14:06;;;;;;;37.30;17.58;;;;;;;1.54;82.09;102526.63;6091047;23;20022;-72
2023/01/22 00:16:32;;;;;;;36.42;16.02;;;;;;;1.55;82.18;102530.94;6092129;23;20006;-71
2023/01/22 00:18:57;;;;;;;36.50;16.90;;;;;;;1.57;82.15;102538.66;6091878;23;20089;-72
2023/01/22 00:21:23;;;;;;;34.78;16.65;;;;;;;1.58;81.91;102535.31;6093251;23;20101;-73
2023/01/22 00:23:48;;;;;;;37.67;17.27;;;;;;;1.59;81.88;102525.22;6091234;23;20209;-72
2023/01/22 00:26:15;;;;;;;36.67;16.58;;;;;;;1.61;82.38;102530.41;6092351;23;20036;-72
2023/01/22 00:28:44;;;;;;;34.25;15.02;;;;;;;1.64;81.62;102512.72;6090876;23;20527;-72
2023/01/22 00:31:10;;;;;;;33.25;16.15;;;;;;;1.65;81.53;102509.41;6092001;23;20042;-72
2023/01/22 00:33:37;;;;;;;31.80;16.65;;;;;;;1.66;81.41;102500.94;6092395;23;20031;-72
2023/01/22 00:36:08;;;;;;;34.08;15.27;;;;;;;1.66;80.84;102501.81;6091640;23;20010;-72
2023/01/22 00:38:33;;;;;;;28.27;14.65;;;;;;;1.68;81.16;102500.25;6090920;23;20092;-72
2023/01/22 00:41:04;;;;;;;32.90;15.43;;;;;;;1.64;81.32;102498.31;6092524;23;20010;-72
2023/01/22 00:43:30;;;;;;;35.67;16.25;;;;;;;1.61;81.86;102504.91;6091976;23;20002;-71
2023/01/22 00:45:56;;;;;;;31.38;15.63;;;;;;;1.63;82.09;102503.31;6091848;23;20461;-71
2023/01/22 00:48:22;;;;;;;35.47;17.92;;;;;;;1.61;82.58;102502.38;6091932;23;20410;-71
2023/01/22 00:50:48;;;;;;;35.40;17.55;;;;;;;1.56;82.86;102498.69;6092135;23;20049;-71
2023/01/22 00:53:13;;;;;;;35.63;17.65;;;;;;;1.49;83.77;102497.47;6091845;23;20018;-71
2023/01/22 00:55:38;;;;;;;36.85;17.23;;;;;;;1.49;83.46;102505.13;6090274;23;20014;-71
2023/01/22 00:58:04;;;;;;;36.78;18.58;;;;;;;1.43;84.26;102504.78;6091529;23;20029;-72
2023/01/22 01:00:29;;;;;;;34.72;18.05;;;;;;;1.39;84.81;102495.19;6090681;23;20018;-72
2023/01/22 01:05:39;;;;;;;36.10;17.55;;;;;;;1.38;84.92;102498.56;6091693;23;20021;-71
2023/01/22 01:08:04;;;;;;;30.88;17.48;;;;;;;1.30;85.70;102500.66;6089219;23;20037;-72
2023/01/22 01:10:30;;;;;;;34.42;18.45;;;;;;;1.30;86.27;102495.56;6091380;23;20044;-71
2023/01/22 01:12:55;;;;;;;35.70;18.35;;;;;;;1.23;86.47;102501.13;6089809;23;20022;-71
2023/01/22 01:15:21;;;;;;;37.22;18.45;;;;;;;1.22;87.16;102499.34;6091515;23;20073;-72
2023/01/22 01:17:46;;;;;;;36.90;18.23;;;;;;;1.23;87.05;102495.13;6091792;23;20014;-71
2023/01/22 01:20:12;;;;;;;34.03;18.08;;;;;;;1.23;86.49;102490.94;6092634;23;20018;-72
2023/01/22 01:22:37;;;;;;;35.85;17.73;;;;;;;1.24;86.26;102491.81;6085184;23;20093;-72
2023/01/22 01:25:04;;;;;;;31.58;17.08;;;;;;;1.23;86.25;102496.03;6090397;23;20014;-71
2023/01/22 01:27:30;;;;;;;30.70;16.48;;;;;;;1.21;86.14;102491.63;6091146;23;20026;-71
2023/01/22 01:29:57;;;;;;;30.85;16.83;;;;;;;1.20;85.91;102498.41;6089415;23;20023;-71
2023/01/22 01:32:23;;;;;;;34.55;16.25;;;;;;;1.22;85.49;102488.28;6090631;23;20070;-72
2023/01/22 01:34:48;;;;;;;29.83;16.17;;;;;;;1.21;85.71;102487.41;6090666;23;20058;-71
2023/01/22 01:37:14;;;;;;;31.77;16.98;;;;;;;1.23;85.43;102490.94;6090219;23;20018;-71
2023/01/22 01:39:40;;;;;;;31.98;16.50;;;;;;;1.22;85.50;102496.81;6087923;23;20073;-71
2023/01/22 01:42:05;;;;;;;34.58;17.90;;;;;;;1.20;85.68;102498.41;6091043;23;20029;-71
2023/01/22 01:44:30;;;;;;;37.65;18.00;;;;;;;1.19;85.81;102496.63;6090082;23;20037;-70
2023/01/22 01:47:11;;;;;;;35.83;19.05;;;;;;;1.20;85.61;102495.84;6089639;23;20093;-72
2023/01/22 01:49:42;;;;;;;34.95;18.90;;;;;;;1.20;85.54;102494.97;6091552;23;20455;-71
2023/01/22 01:52:11;;;;;;;35.25;18.23;;;;;;;1.18;85.60;102496.56;6092608;23;20025;-71
2023/01/22 01:54:39;;;;;;;33.78;17.77;;;;;;;1.19;85.92;102496.63;6091506;23;20366;-71
2023/01/22 01:57:13;;;;;;;32.78;17.60;;;;;;;1.15;85.37;102489.59;6092044;23;20023;-71
2023/01/22 01:59:41;;;;;;;34.28;18.05;;;;;;;1.17;85.27;102490.56;6090731;23;20093;-71
2023/01/22 02:02:06;;;;;;;32.92;17.45;;;;;;;1.13;85.12;102492.84;6090355;23;20029;-71
2023/01/22 02:04:32;;;;;;;32.80;17.95;;;;;;;1.14;85.55;102486.97;6091065;23;20335;-71
2023/01/22 02:06:57;;;;;;;33.72;17.55;;;;;;;1.12;85.54;102491.97;6089847;23;20433;-71
2023/01/22 02:09:23;;;;;;;30.65;16.50;;;;;;;1.11;85.54;102490.22;6091482;23;20022;-71
2023/01/22 02:11:50;;;;;;;29.77;16.90;;;;;;;1.12;85.33;102493.66;6091191;23;20098;-71
2023/01/22 02:14:40;;;;;;;32.92;17.67;;;;;;;1.17;84.94;102487.16;6094182;23;20051;-72
2023/01/22 02:17:10;;;;;;;31.92;17.77;;;;;;;1.17;84.89;102487.16;6091522;23;20453;-71
2023/01/22 02:19:36;;;;;;;35.90;19.65;;;;;;;1.15;85.08;102486.19;6092914;23;20018;-71
2023/01/22 02:22:01;;;;;;;32.97;16.98;;;;;;;1.11;85.42;102482.59;6092932;23;20097;-71
2023/01/22 02:24:30;;;;;;;30.33;16.40;;;;;;;1.14;84.87;102480.22;6092877;23;20093;-71
2023/01/22 02:26:55;;;;;;;30.60;16.63;;;;;;;1.12;85.11;102479.22;6091593;23;20462;-71
2023/01/22 02:29:21;;;;;;;32.33;17.48;;;;;;;1.10;85.55;102478.28;6092855;23;20010;-71
2023/01/22 02:31:47;;;;;;;29.05;17.50;;;;;;;1.12;85.45;102478.38;6093188;23;20014;-71
2023/01/22 02:34:12;;;;;;;29.17;16.13;;;;;;;1.10;85.59;102485.91;6092316;23;20362;-71
2023/01/22 02:36:39;;;;;;;31.42;16.70;;;;;;;1.15;84.89;102481.09;6090240;23;20026;-71
2023/01/22 02:39:05;;;;;;;31.77;18.05;;;;;;;1.12;84.87;102479.22;6092171;23;20026;-71
2023/01/22 02:41:31;;;;;;;28.33;16.10;;;;;;;1.08;85.13;102477.31;6093413;23;20010;-71
2023/01/22 02:43:56;;;;;;;33.33;17.83;;;;;;;1.09;85.32;102485.84;6092707;23;20002;-71
2023/01/22 02:46:24;;;;;;;26.45;16.40;;;;;;;1.09;84.67;102491.78;6092472;23;20519;-70
2023/01/22 02:48:49;;;;;;;29.77;16.75;;;;;;;1.08;85.06;102481.53;6091619;23;20023;-71
2023/01/22 02:51:14;;;;;;;35.55;17.60;;;;;;;1.08;84.96;102484.06;6094109;23;20077;-71
2023/01/22 02:53:40;;;;;;;32.67;17.45;;;;;;;1.10;84.73;102488.47;6092684;23;20089;-71
2023/01/22 02:56:10;;;;;;;31.98;17.05;;;;;;;1.09;85.21;102485.84;6093526;23;20088;-72
2023/01/22 02:58:35;;;;;;;34.63;18.52;;;;;;;1.07;85.13;102482.31;6094466;23;20014;-72
2023/01/22 03:01:19;;;;;;;33.20;17.98;;;;;;;1.05;85.43;102481.34;6092605;23;20033;-73
2023/01/22 03:03:45;;;;;;;33.35;18.48;;;;;;;1.06;85.54;102478.03;6092435;23;20010;-72
2023/01/22 03:06:14;;;;;;;32.00;17.30;;;;;;;1.04;85.66;102479.59;6094463;23;20022;-72
2023/01/22 03:08:40;;;;;;;31.50;17.10;;;;;;;1.06;85.25;102478.88;6094691;23;20018;-71
2023/01/22 03:11:05;;;;;;;33.83;18.10;;;;;;;1.03;85.52;102465.13;6093985;23;20029;-71
2023/01/22 03:21:46;;;;;;;33.03;17.92;;;;;;;1.01;85.74;102459.94;6094068;23;20034;-71
2023/01/22 03:24:11;;;;;;;32.90;18.15;;;;;;;1.01;85.36;102459.94;6092277;23;20390;-72
2023/01/22 03:26:37;;;;;;;26.58;15.95;;;;;;;1.02;85.62;102455.72;6093132;23;20038;-71
2023/01/22 03:29:02;;;;;;;31.45;16.65;;;;;;;1.02;85.60;102459.16;6091548;23;20438;-72
2023/01/22 03:31:27;;;;;;;31.23;16.85;;;;;;;1.03;85.59;102452.41;6092442;23;20576;-72
2023/01/22 03:33:53;;;;;;;30.88;16.42;;;;;;;1.04;85.90;102460.09;6093958;23;20030;-71
2023/01/22 03:36:18;;;;;;;28.90;16.30;;;;;;;1.05;85.62;102454.22;6093771;23;20473;-72
2023/01/22 03:38:44;;;;;;;33.50;16.27;;;;;;;1.07;85.50;102446.66;6093248;23;20025;-71
2023/01/22 03:41:14;;;;;;;29.25;17.38;;;;;;;1.09;85.40;102445.09;6093561;23;20026;-71
2023/01/22 03:43:39;;;;;;;27.38;15.27;;;;;;;1.12;85.14;102443.59;6092602;23;20002;-71
2023/01/22 03:46:13;;;;;;;31.80;16.95;;;;;;;1.13;84.80;102452.97;6090429;23;20050;-71
2023/01/22 03:48:39;;;;;;;32.97;17.17;;;;;;;1.14;85.48;102448.78;6092994;23;20015;-70
2023/01/22 03:51:08;;;;;;;32.30;17.10;;;;;;;1.14;85.42;102456.41;6093336;23;20671;-71
2023/01/22 03:53:34;;;;;;;28.08;15.68;;;;;;;1.14;85.16;102452.22;6093949;23;20093;-70
2023/01/22 03:56:01;;;;;;;32.60;17.13;;;;;;;1.19;84.92;102452.44;6093886;23;20010;-72
2023/01/22 03:58:28;;;;;;;31.52;16.52;;;;;;;1.17;85.06;102459.13;6093108;23;20030;-70
2023/01/22 04:00:56;;;;;;;33.45;17.73;;;;;;;1.17;85.16;102451.50;6093352;23;20015;-71
2023/01/22 04:03:25;;;;;;;30.75;16.98;;;;;;;1.15;85.20;102453.09;6093243;23;20128;-72
2023/01/22 04:05:51;;;;;;;27.63;16.60;;;;;;;1.17;85.33;102462.56;6100848;23;20018;-71
2023/01/22 04:08:16;;;;;;;31.40;17.95;;;;;;;1.16;85.26;102455.72;6107360;23;20018;-71
2023/01/22 04:10:42;;;;;;;26.40;15.63;;;;;;;1.15;85.41;102453.94;6103233;23;20010;-72
2023/01/22 04:13:07;;;;;;;30.38;16.17;;;;;;;1.15;85.37;102456.47;6097071;23;20145;-72
2023/01/22 04:15:33;;;;;;;30.35;16.80;;;;;;;1.16;85.40;102455.72;6096785;23;20045;-71
2023/01/22 04:17:58;;;;;;;30.70;16.83;;;;;;;1.15;85.59;102453.09;6098224;23;20050;-71
2023/01/22 04:20:24;;;;;;;35.42;19.02;;;;;;;1.15;85.42;102458.19;6095648;23;20077;-71
2023/01/22 04:22:49;;;;;;;34.65;17.98;;;;;;;1.14;85.34;102456.41;6093076;23;20011;-72
2023/01/22 04:25:15;;;;;;;31.85;17.52;;;;;;;1.13;85.66;102460.63;6090817;23;20018;-71
2023/01/22 04:27:40;;;;;;;32.00;17.23;;;;;;;1.14;85.63;102454.75;6095199;23;20018;-71
2023/01/22 04:30:06;;;;;;;33.08;18.70;;;;;;;1.14;85.59;102453.88;6095781;23;20023;-71
2023/01/22 04:32:32;;;;;;;30.17;17.17;;;;;;;1.14;85.57;102454.75;6095601;23;20025;-71
2023/01/22 04:34:57;;;;;;;30.88;17.13;;;;;;;1.14;85.63;102457.31;6096979;23;20010;-72
2023/01/22 04:37:22;;;;;;;30.50;17.30;;;;;;;1.16;85.67;102465.91;6096067;23;20015;-71
2023/01/22 04:39:48;;;;;;;33.63;16.77;;;;;;;1.16;85.66;102463.34;6094795;23;20022;-71
2023/01/22 04:42:13;;;;;;;33.10;18.00;;;;;;;1.18;85.65;102463.44;6095515;23;20111;-70
2023/01/22 04:44:39;;;;;;;32.15;17.58;;;;;;;1.19;85.43;102466.06;6093723;23;20011;-72
2023/01/22 04:47:04;;;;;;;30.85;16.52;;;;;;;1.20;85.38;102469.50;6093587;23;20101;-71
2023/01/22 04:49:29;;;;;;;31.38;17.15;;;;;;;1.20;85.33;102467.84;6094789;23;20005;-71
2023/01/22 04:51:55;;;;;;;29.42;17.05;;;;;;;1.22;85.27;102465.34;6094171;23;20464;-72
2023/01/22 04:54:21;;;;;;;30.45;17.48;;;;;;;1.22;85.25;102462.81;6092897;23;20033;-71
2023/01/22 04:56:46;;;;;;;28.52;17.35;;;;;;;1.24;85.01;102456.16;6093906;23;20038;-72
2023/01/22 04:59:11;;;;;;;33.58;17.80;;;;;;;1.23;85.18;102455.28;6093864;23;20034;-71
2023/01/22 05:01:37;;;;;;;29.58;17.58;;;;;;;1.24;85.30;102453.59;6090772;23;20010;-71
2023/01/22 05:04:02;;;;;;;28.38;16.65;;;;;;;1.23;84.96;102462.91;6087834;23;20014;-71
2023/01/22 05:06:29;;;;;;;29.27;15.52;;;;;;;1.25;84.96;102457.88;6087446;23;20026;-71
2023/01/22 05:08:54;;;;;;;29.48;16.50;;;;;;;1.25;85.42;102452.78;6088529;23;20015;-71
2023/01/22 05:11:20;;;;;;;29.25;16.83;;;;;;;1.26;85.11;102452.00;6087930;23;20022;-71
2023/01/22 05:13:45;;;;;;;29.60;15.63;;;;;;;1.26;84.96;102450.34;6088403;23;20014;-72
2023/01/22 05:16:11;;;;;;;26.73;16.05;;;;;;;1.30;84.66;102444.63;6088793;23;20018;-71
2023/01/22 05:18:36;;;;;;;29.23;16.02;;;;;;;1.31;84.63;102453.13;6090286;23;20026;-71
2023/01/22 05:21:02;;;;;;;27.98;15.70;;;;;;;1.31;84.71;102453.13;6089654;23;20041;-71
2023/01/22 05:23:27;;;;;;;29.33;17.10;;;;;;;1.33;84.62;102465.97;6089943;23;20065;-71
2023/01/22 05:25:52;;;;;;;27.67;17.15;;;;;;;1.30;84.63;102464.13;6088720;23;20087;-71
2023/01/22 05:28:18;;;;;;;26.45;16.30;;;;;;;1.34;84.35;102465.16;6088323;23;20247;-71
2023/01/22 05:30:43;;;;;;;28.23;16.17;;;;;;;1.34;84.38;102466.03;6088240;23;20679;-71
2023/01/22 05:33:09;;;;;;;29.80;16.88;;;;;;;1.34;84.14;102462.63;6088250;23;20129;-71
2023/01/22 05:35:34;;;;;;;27.40;16.05;;;;;;;1.34;84.26;102460.06;6087292;23;20090;-72
2023/01/22 05:38:00;;;;;;;26.92;16.10;;;;;;;1.35;84.34;102451.66;6087731;23;20395;-71
2023/01/22 05:40:25;;;;;;;29.23;17.27;;;;;;;1.38;83.90;102447.59;6089081;23;20084;-71
2023/01/22 05:42:50;;;;;;;26.00;15.48;;;;;;;1.37;84.16;102447.50;6087463;23;20462;-71
2023/01/22 05:45:16;;;;;;;27.90;16.38;;;;;;;1.37;83.93;102455.16;6088122;23;20450;-71
2023/01/22 05:47:41;;;;;;;29.88;16.67;;;;;;;1.37;84.07;102458.56;6062598;23;20042;-71
2023/01/22 05:50:08;;;;;;;30.08;16.58;;;;;;;1.39;83.38;102454.44;6086640;23;20018;-71
2023/01/22 05:52:34;;;;;;;27.08;16.25;;;;;;;1.40;83.60;102461.28;6087879;23;20013;-71
2023/01/22 05:55:00;;;;;;;27.58;16.58;;;;;;;1.37;83.64;102467.88;6088908;23;20022;-71
2023/01/22 05:57:28;;;;;;;28.67;15.65;;;;;;;1.38;83.49;102462.00;6088045;23;20041;-71
2023/01/22 05:59:54;;;;;;;29.20;15.38;;;;;;;1.39;83.90;102466.31;6086928;23;20466;-71
2023/01/22 06:02:19;;;;;;;25.38;15.95;;;;;;;1.39;83.57;102467.16;6088285;23;20076;-71
2023/01/22 06:04:44;;;;;;;29.55;16.88;;;;;;;1.37;83.73;102465.34;6084561;23;20011;-72
2023/01/22 06:07:10;;;;;;;29.77;16.77;;;;;;;1.38;83.56;102462.88;6086763;23;20430;-71
2023/01/22 06:09:35;;;;;;;26.20;16.13;;;;;;;1.37;83.69;102457.69;6085664;23;20498;-71
2023/01/22 06:12:01;;;;;;;28.92;16.58;;;;;;;1.36;84.00;102453.41;6086241;23;20020;-72
2023/01/22 06:14:26;;;;;;;32.45;18.25;;;;;;;1.36;83.67;102459.34;6087085;23;20029;-71
2023/01/22 06:16:51;;;;;;;27.42;16.15;;;;;;;1.36;83.59;102461.91;6086874;23;20049;-71
2023/01/22 06:19:17;;;;;;;28.10;16.88;;;;;;;1.37;83.50;102462.78;6088795;23;20014;-71
2023/01/22 06:21:42;;;;;;;26.80;16.17;;;;;;;1.36;83.54;102468.69;6088334;23;20022;-71
2023/01/22 06:24:08;;;;;;;30.83;16.33;;;;;;;1.37;83.57;102470.44;6088219;23;20090;-71
2023/01/22 06:26:33;;;;;;;28.17;16.45;;;;;;;1.36;83.91;102468.69;6086764;23;20018;-71
2023/01/22 06:28:59;;;;;;;27.35;15.57;;;;;;;1.37;83.40;102461.13;6086901;23;20038;-72
2023/01/22 06:31:25;;;;;;;26.92;16.23;;;;;;;1.37;83.45;102450.94;6085138;23;20550;-71
2023/01/22 06:33:52;;;;;;;29.35;16.67;;;;;;;1.37;83.45;102460.22;6084870;23;20029;-71
2023/01/22 06:36:17;;;;;;;25.90;15.35;;;;;;;1.36;83.68;102458.50;6087592;23;20041;-71
2023/01/22 06:38:42;;;;;;;24.60;15.63;;;;;;;1.33;83.58;102461.72;6087352;23;20014;-71
2023/01/22 06:41:09;;;;;;;23.30;14.75;;;;;;;1.35;83.38;102457.63;6087833;23;20124;-71
2023/01/22 06:43:36;;;;;;;25.38;14.73;;;;;;;1.36;83.56;102458.50;6087783;23;20026;-71
2023/01/22 06:46:02;;;;;;;27.77;15.57;;;;;;;1.34;83.34;102452.44;6085711;23;20021;-71
2023/01/22 06:48:27;;;;;;;26.13;15.40;;;;;;;1.34;83.44;102460.06;6086225;23;20089;-72
2023/01/22 06:50:57;;;;;;;29.85;16.40;;;;;;;1.34;83.37;102462.63;6086681;23;20038;-71
2023/01/22 06:53:23;;;;;;;26.83;14.90;;;;;;;1.36;83.41;102464.44;6086815;23;20063;-72
2023/01/22 06:55:48;;;;;;;22.33;14.43;;;;;;;1.35;83.10;102472.91;6087098;23;20069;-71
2023/01/22 06:58:14;;;;;;;22.63;14.52;;;;;;;1.36;83.13;102472.09;6085957;23;20430;-71
2023/01/22 07:00:39;;;;;;;23.25;15.15;;;;;;;1.38;83.41;102488.38;6087003;23;20116;-71
2023/01/22 07:03:06;;;;;;;23.02;13.93;;;;;;;1.39;83.25;102481.59;6087317;23;20358;-72
2023/01/22 07:05:31;;;;;;;25.08;15.02;;;;;;;1.38;83.26;102480.72;6088202;23;20014;-71
2023/01/22 07:07:57;;;;;;;22.33;14.60;;;;;;;1.39;83.37;102492.66;6088044;23;20168;-71
2023/01/22 07:10:22;;;;;;;24.73;14.00;;;;;;;1.36;83.42;102495.03;6088974;23;20060;-71
2023/01/22 07:12:54;;;;;;;24.83;14.93;;;;;;;1.38;84.02;102503.66;6086841;23;20097;-72
2023/01/22 07:15:20;;;;;;;23.10;14.25;;;;;;;1.39;83.58;102499.44;6087098;23;20022;-71
2023/01/22 07:17:50;;;;;;;24.38;14.05;;;;;;;1.38;83.51;102498.56;6087531;23;20022;-71
2023/01/22 07:20:16;;;;;;;20.70;13.10;;;;;;;1.42;83.34;102504.69;6088219;23;20014;-71
2023/01/22 07:22:42;;;;;;;22.95;14.57;;;;;;;1.40;83.63;102506.25;6089845;23;20355;-71
2023/01/22 07:25:07;;;;;;;22.75;13.98;;;;;;;1.41;83.46;102508.03;6089060;23;20094;-72
2023/01/22 07:27:33;;;;;;;21.90;13.55;;;;;;;1.42;83.50;102512.34;6088605;23;20093;-71
2023/01/22 07:29:59;;;;;;;20.38;13.02;;;;;;;1.41;83.76;102508.91;6088323;23;20014;-71
2023/01/22 07:32:25;;;;;;;21.15;13.27;;;;;;;1.40;83.59;102524.97;6088399;23;20025;-71
2023/01/22 07:34:50;;;;;;;24.10;13.95;;;;;;;1.43;83.58;102514.06;6088326;23;20475;-71
2023/01/22 07:37:15;;;;;;;22.88;13.38;;;;;;;1.40;83.69;102522.44;6087928;23;20010;-71
2023/01/22 07:39:41;;;;;;;24.70;14.93;;;;;;;1.44;83.85;102518.41;6088629;23;20026;-70
2023/01/22 07:42:06;;;;;;;20.05;12.73;;;;;;;1.42;83.59;102523.38;6086052;23;20018;-71
2023/01/22 07:44:32;;;;;;;20.70;13.38;;;;;;;1.43;83.75;102529.38;6086837;23;20018;-72
2023/01/22 07:46:57;;;;;;;23.40;14.50;;;;;;;1.40;83.92;102524.09;6084308;23;20066;-70
2023/01/22 07:49:23;;;;;;;22.58;14.30;;;;;;;1.40;84.09;102529.19;6086178;23;20311;-71
2023/01/22 07:51:48;;;;;;;23.17;13.82;;;;;;;1.41;84.52;102531.84;6087946;23;20019;-71
2023/01/22 07:54:13;;;;;;;24.65;14.23;;;;;;;1.42;84.66;102531.03;6089068;23;20454;-70
2023/01/22 07:56:39;;;;;;;20.48;13.18;;;;;;;1.43;84.86;102529.38;6088059;23;20026;-71
2023/01/22 07:59:04;;;;;;;26.42;15.63;;;;;;;1.40;85.14;102524.97;6088278;23;20032;-70
2023/01/22 08:01:30;;;;;;;24.25;14.18;;;;;;;1.43;85.05;102532.78;6089184;23;20426;-72
2023/01/22 08:03:56;;;;;;;24.33;15.30;;;;;;;1.45;85.28;102538.84;6088549;23;20025;-72
2023/01/22 08:06:22;;;;;;;25.85;14.98;;;;;;;1.47;85.08;102544.03;6087731;23;20041;-72
2023/01/22 08:08:48;;;;;;;22.75;14.07;;;;;;;1.47;85.27;102544.94;6086098;23;20022;-72
2023/01/22 08:11:13;;;;;;;24.02;15.23;;;;;;;1.46;85.47;102539.72;6086886;23;20011;-72
2023/01/22 08:13:39;;;;;;;22.58;14.70;;;;;;;1.47;85.76;102547.47;6088264;23;20013;-72
2023/01/22 08:16:05;;;;;;;25.63;15.43;;;;;;;1.46;85.78;102549.91;6086325;23;20045;-73
2023/01/22 08:18:30;;;;;;;23.20;14.30;;;;;;;1.46;86.00;102555.91;6090801;23;20472;-72
2023/01/22 08:20:59;;;;;;;23.17;14.57;;;;;;;1.47;86.01;102559.34;6093031;23;20097;-73
2023/01/22 08:23:24;;;;;;;26.05;14.75;;;;;;;1.47;86.28;102556.78;6066842;23;20077;-72
2023/01/22 08:25:49;;;;;;;24.85;14.57;;;;;;;1.48;85.96;102549.22;6092160;23;20449;-71
2023/01/22 08:28:15;;;;;;;21.17;13.68;;;;;;;1.48;86.23;102559.41;6092978;23;20430;-71
2023/01/22 08:30:41;;;;;;;23.85;14.45;;;;;;;1.52;86.49;102558.78;6090820;23;20390;-71
2023/01/22 08:33:06;;;;;;;21.52;15.07;;;;;;;1.54;86.25;102564.00;6088786;23;20038;-71
2023/01/22 08:35:31;;;;;;;25.90;15.68;;;;;;;1.56;86.06;102565.84;6091640;23;20045;-71
2023/01/22 08:37:59;;;;;;;25.73;15.20;;;;;;;1.57;86.08;102561.59;6089433;23;20341;-71
2023/01/22 08:40:24;;;;;;;25.80;14.55;;;;;;;1.56;86.21;102575.16;6090357;23;20018;-71
2023/01/22 08:42:53;;;;;;;21.30;14.15;;;;;;;1.58;86.16;102558.25;6092009;23;20024;-71
2023/01/22 08:45:19;;;;;;;27.13;16.67;;;;;;;1.59;86.12;102568.56;6089941;23;20025;-71
2023/01/22 08:47:44;;;;;;;26.17;15.93;;;;;;;1.61;85.77;102571.19;6091854;23;20014;-71
2023/01/22 08:50:10;;;;;;;26.08;15.68;;;;;;;1.63;86.47;102564.47;6092080;23;20037;-71
2023/01/22 08:52:35;;;;;;;24.60;14.43;;;;;;;1.67;85.69;102563.88;6090156;23;20063;-71
2023/01/22 08:55:01;;;;;;;25.58;14.65;;;;;;;1.68;85.66;102563.97;6092093;23;20026;-71
2023/01/22 08:57:26;;;;;;;23.35;14.05;;;;;;;1.73;85.60;102561.66;6092896;23;20029;-71
2023/01/22 08:59:51;;;;;;;23.13;14.90;;;;;;;1.77;85.95;102567.03;6092024;23;20018;-71
2023/01/22 09:02:17;;;;;;;23.90;15.35;;;;;;;1.81;85.01;102562.97;6093158;23;20028;-71
2023/01/22 09:04:42;;;;;;;23.42;13.48;;;;;;;1.87;85.15;102565.84;6092595;23;20401;-69
2023/01/22 09:07:09;;;;;;;24.63;15.07;;;;;;;1.87;84.88;102563.31;6090310;23;20093;-69
2023/01/22 09:09:35;;;;;;;24.80;14.98;;;;;;;1.91;85.08;102565.25;6092045;23;20022;-69
2023/01/22 09:12:00;;;;;;;22.13;14.25;;;;;;;1.94;84.34;102565.41;6090816;23;20015;-68
2023/01/22 09:14:26;;;;;;;21.42;14.07;;;;;;;1.97;84.70;102559.59;6086825;23;20026;-69
2023/01/22 09:16:51;;;;;;;22.00;13.73;;;;;;;1.98;84.43;102563.91;6091558;23;20017;-69
2023/01/22 09:19:16;;;;;;;23.90;14.73;;;;;;;1.98;84.40;102557.16;6094298;23;20014;-69
2023/01/22 09:21:42;;;;;;;22.20;14.48;;;;;;;2.00;84.51;102560.66;6092568;23;20018;-69
2023/01/22 09:24:07;;;;;;;24.38;14.20;;;;;;;1.99;84.18;102563.97;6094160;23;20030;-69
2023/01/22 09:26:33;;;;;;;23.92;13.85;;;;;;;2.02;84.35;102564.16;6090079;23;20098;-69
2023/01/22 09:29:00;;;;;;;21.77;14.05;;;;;;;2.10;84.02;102574.78;6092115;23;20021;-69
2023/01/22 09:31:26;;;;;;;21.45;12.23;;;;;;;2.09;83.50;102579.00;6093300;23;20006;-69
2023/01/22 09:33:53;;;;;;;20.70;12.27;;;;;;;2.11;83.21;102579.06;6093082;23;20023;-69
2023/01/22 09:36:19;;;;;;;23.95;13.35;;;;;;;2.17;83.70;102580.28;6091906;23;20350;-69
2023/01/22 09:38:44;;;;;;;20.63;13.57;;;;;;;2.19;83.20;102570.19;6091058;23;20021;-69
2023/01/22 09:41:16;;;;;;;24.63;13.45;;;;;;;2.22;82.97;102573.75;6091181;23;20030;-70
2023/01/22 09:43:53;;;;;;;21.48;12.98;;;;;;;2.26;82.50;102573.13;6091295;23;20009;-69
2023/01/22 09:46:26;;;;;;;21.70;13.80;;;;;;;2.30;82.22;102571.63;6089249;23;20023;-70
2023/01/22 09:48:55;;;;;;;22.75;12.77;;;;;;;2.31;82.30;102568.28;6091532;23;20022;-70
2023/01/22 09:51:21;;;;;;;24.50;14.35;;;;;;;2.30;82.09;102564.84;6091879;23;20097;-70
2023/01/22 09:53:54;;;;;;;20.88;12.27;;;;;;;2.35;82.25;102567.63;6090033;23;20049;-70
2023/01/22 09:56:22;;;;;;;20.42;11.80;;;;;;;2.37;81.76;102559.25;6091970;23;20022;-70
2023/01/22 09:58:50;;;;;;;19.30;12.65;;;;;;;2.40;81.67;102569.63;6091637;23;20089;-70
2023/01/22 10:01:17;;;;;;;19.77;12.68;;;;;;;2.45;81.74;102577.56;6090990;23;20010;-70
2023/01/22 10:03:45;;;;;;;22.00;12.88;;;;;;;2.49;81.23;102573.50;6090983;23;20034;-72
2023/01/22 10:06:21;;;;;;;19.92;12.52;;;;;;;2.51;81.03;102572.78;6090090;23;20097;-70
2023/01/22 10:09:18;;;;;;;23.08;12.80;;;;;;;2.50;81.30;102577.78;6090954;23;20370;-69
2023/01/22 10:11:48;;;;;;;21.35;12.40;;;;;;;2.47;82.03;102578.50;6091440;23;20496;-69
2023/01/22 10:14:16;;;;;;;20.95;12.70;;;;;;;2.49;82.20;102573.50;6089581;23;20023;-70
2023/01/22 10:16:44;;;;;;;23.40;13.00;;;;;;;2.44;82.87;102573.22;6091878;23;20006;-70
2023/01/22 10:19:33;;;;;;;21.15;13.05;;;;;;;2.35;83.47;102578.72;6091737;23;20018;-70
2023/01/22 10:22:03;;;;;;;21.70;12.80;;;;;;;2.36;83.93;102577.94;6090368;23;20018;-70
2023/01/22 10:24:29;;;;;;;26.98;15.35;;;;;;;2.36;84.35;102580.50;6090180;23;20467;-70
2023/01/22 10:26:57;;;;;;;25.10;14.60;;;;;;;2.34;84.13;102574.41;6089549;23;20025;-70
2023/01/22 10:29:29;;;;;;;24.23;14.07;;;;;;;2.38;84.08;102571.25;6090758;23;20010;-70
2023/01/22 10:31:57;;;;;;;22.05;12.45;;;;;;;2.37;84.56;102576.25;6088646;23;20009;-71
2023/01/22 10:34:31;;;;;;;22.98;14.05;;;;;;;2.32;84.67;102573.47;6091125;23;20002;-70
2023/01/22 10:37:01;;;;;;;23.03;13.00;;;;;;;2.25;85.16;102579.03;6091338;23;20022;-70
2023/01/22 10:39:26;;;;;;;21.42;13.15;;;;;;;2.24;85.30;102572.19;6091575;23;20057;-70
2023/01/22 10:42:00;;;;;;;24.75;14.23;;;;;;;2.29;85.26;102568.19;6093346;23;20021;-70
2023/01/22 10:44:25;;;;;;;22.95;13.55;;;;;;;2.31;85.42;102568.28;6091494;23;20018;-70
2023/01/22 10:46:52;;;;;;;26.30;15.10;;;;;;;2.32;85.14;102568.34;6093759;23;20013;-71
2023/01/22 10:49:18;;;;;;;26.20;14.00;;;;;;;2.36;84.81;102572.84;6093265;23;20607;-68
2023/01/22 10:52:05;;;;;;;23.88;13.85;;;;;;;2.43;84.57;102567.25;6093949;23;20018;-68
2023/01/22 10:54:40;;;;;;;25.55;13.93;;;;;;;2.51;84.11;102566.78;6094683;23;20045;-69
2023/01/22 10:57:24;;;;;;;24.45;13.10;;;;;;;2.53;84.27;102566.06;6094546;23;20023;-68
2023/01/22 11:00:00;;;;;;;24.48;13.23;;;;;;;2.57;83.77;102557.78;6091848;23;20015;-70
2023/01/22 11:02:26;;;;;;;22.05;13.48;;;;;;;2.65;83.70;102556.50;6092199;23;20018;-69
2023/01/22 11:04:52;;;;;;;23.40;13.93;;;;;;;2.75;83.46;102558.75;6091753;23;20009;-69
2023/01/22 11:07:25;;;;;;;20.48;11.90;;;;;;;2.72;82.70;102558.59;6092678;23;20416;-70
2023/01/22 11:10:06;;;;;;;23.48;12.68;;;;;;;2.74;82.84;102556.97;6092345;23;20146;-69
2023/01/22 11:12:36;;;;;;;20.73;12.25;;;;;;;2.80;82.23;102554.75;6092518;23;20023;-69
2023/01/22 11:15:15;;;;;;;22.77;12.25;;;;;;;2.86;82.57;102556.72;6090334;23;20097;-69
2023/01/22 11:17:48;;;;;;;20.27;11.40;;;;;;;2.81;81.72;102556.50;6090976;23;20018;-69
2023/01/22 11:20:32;;;;;;;18.02;12.10;;;;;;;2.84;81.25;102554.13;6092089;23;20018;-68
2023/01/22 11:23:09;;;;;;;21.83;13.35;;;;;;;2.87;81.44;102549.13;6091441;23;20018;-69
2023/01/22 11:25:44;;;;;;;21.98;14.02;;;;;;;2.89;82.38;102555.22;6093847;23;20014;-68
2023/01/22 11:28:32;;;;;;;21.63;13.50;;;;;;;2.91;81.76;102555.28;6093409;23;20355;-68